Time;durP1;ratioP1;P1;durP2;ratioP2;P2;SDS_P1;SDS_P2;PMS_P1;PMS_P2;Temp;Humidity;BMP_temperature;BMP_pressure;BME280_temperature;BME280_humidity;BME280_pressure;Samples;Min_cycle;Max_cycle;Signal;HPM_P1;HPM_P2
2021/03/02 00:02:06;;;;;;;22.90;6.03;;;;;;;;;;4330894;33;20119;-77
2021/03/02 00:04:34;;;;;;;25.15;5.95;;;;;;;;;;4315324;33;20114;-77
2021/03/02 00:07:02;;;;;;;21.05;6.35;;;;;;;;;;4323686;33;20207;-78
2021/03/02 00:09:30;;;;;;;23.38;6.47;;;;;;;;;;4330714;33;20156;-77
2021/03/02 00:11:58;;;;;;;29.55;6.45;;;;;;;;;;4334958;33;20052;-78
2021/03/02 00:14:26;;;;;;;21.98;6.03;;;;;;;;;;4328321;33;20044;-78
2021/03/02 00:16:59;;;;;;;24.52;5.85;;;;;;;;;;4333034;33;20835;-78
2021/03/02 00:19:31;;;;;;;23.17;5.87;;;;;;;;;;4333622;33;20384;-79
2021/03/02 00:22:03;;;;;;;22.73;5.90;;;;;;;;;;4336652;33;20157;-78
2021/03/02 00:24:36;;;;;;;21.25;6.00;;;;;;;;;;4322464;33;20084;-78
2021/03/02 00:27:05;;;;;;;22.70;6.07;;;;;;;;;;4335696;33;20086;-78
2021/03/02 00:29:33;;;;;;;24.85;6.20;;;;;;;;;;4336992;33;20072;-78
2021/03/02 00:32:01;;;;;;;25.98;6.62;;;;;;;;;;4335300;33;20367;-78
2021/03/02 00:34:29;;;;;;;20.73;5.57;;;;;;;;;;4333403;33;20169;-78
2021/03/02 00:36:58;;;;;;;27.05;6.22;;;;;;;;;;4332844;33;20127;-78
2021/03/02 00:39:26;;;;;;;22.83;5.85;;;;;;;;;;4333296;33;20071;-78
2021/03/02 00:41:53;;;;;;;23.17;6.25;;;;;;;;;;4320929;33;20064;-78
2021/03/02 00:44:22;;;;;;;21.98;6.47;;;;;;;;;;4326974;33;21243;-78
2021/03/02 00:46:50;;;;;;;19.33;5.53;;;;;;;;;;4334358;33;20090;-78
2021/03/02 00:49:18;;;;;;;21.85;5.62;;;;;;;;;;4325079;33;20056;-78
2021/03/02 00:51:46;;;;;;;22.25;6.10;;;;;;;;;;4325288;33;20060;-78
2021/03/02 00:54:16;;;;;;;28.12;11.90;;;;;;;;;;4319865;33;20442;-78
2021/03/02 00:56:45;;;;;;;29.85;12.43;;;;;;;;;;4330168;33;20067;-78
2021/03/02 00:59:14;;;;;;;29.05;16.33;;;;;;;;;;4322611;33;20053;-78
2021/03/02 01:01:43;;;;;;;30.90;15.20;;;;;;;;;;4329229;33;20106;-79
2021/03/02 01:04:12;;;;;;;36.58;15.68;;;;;;;;;;4325577;33;20075;-78
2021/03/02 01:06:41;;;;;;;27.65;17.33;;;;;;;;;;4321218;33;20095;-77
2021/03/02 01:09:10;;;;;;;30.02;14.13;;;;;;;;;;4332398;33;20052;-78
2021/03/02 01:11:39;;;;;;;30.95;10.45;;;;;;;;;;4320953;33;20131;-78
2021/03/02 01:14:08;;;;;;;26.50;12.93;;;;;;;;;;4317424;33;20154;-79
2021/03/02 01:16:36;;;;;;;21.87;9.57;;;;;;;;;;4318443;33;21118;-78
2021/03/02 01:19:04;;;;;;;27.27;10.02;;;;;;;;;;4309793;33;20786;-78
2021/03/02 01:21:33;;;;;;;26.50;11.20;;;;;;;;;;4323679;33;21700;-80
2021/03/02 01:24:01;;;;;;;24.80;10.02;;;;;;;;;;4316726;33;20749;-78
2021/03/02 01:26:28;;;;;;;24.15;8.50;;;;;;;;;;4323910;33;20052;-78
2021/03/02 01:28:57;;;;;;;31.98;10.07;;;;;;;;;;4329842;33;20051;-79
2021/03/02 01:31:25;;;;;;;35.30;15.30;;;;;;;;;;4309360;33;20078;-79
2021/03/02 01:33:53;;;;;;;29.50;16.30;;;;;;;;;;4321501;33;20142;-78
2021/03/02 01:36:21;;;;;;;23.00;9.32;;;;;;;;;;4334083;33;20134;-78
2021/03/02 01:38:50;;;;;;;24.90;9.50;;;;;;;;;;4328759;33;20127;-77
2021/03/02 01:41:18;;;;;;;30.48;16.20;;;;;;;;;;4323011;33;20055;-79
2021/03/02 01:43:46;;;;;;;23.67;10.63;;;;;;;;;;4321008;33;20186;-78
2021/03/02 01:46:14;;;;;;;32.88;12.43;;;;;;;;;;4328002;33;20051;-78
2021/03/02 01:48:43;;;;;;;28.17;11.30;;;;;;;;;;4332186;33;20186;-78
2021/03/02 01:51:11;;;;;;;39.65;13.62;;;;;;;;;;4336044;33;20091;-77
2021/03/02 01:53:39;;;;;;;31.15;9.48;;;;;;;;;;4322663;33;20136;-78
2021/03/02 01:56:07;;;;;;;27.75;13.13;;;;;;;;;;4336662;33;20063;-78
2021/03/02 01:58:36;;;;;;;30.10;8.25;;;;;;;;;;4328709;33;20158;-78
2021/03/02 02:01:06;;;;;;;20.37;6.60;;;;;;;;;;4324325;33;20118;-78
2021/03/02 02:03:44;;;;;;;25.75;6.60;;;;;;;;;;4320972;33;20057;-78
2021/03/02 02:06:12;;;;;;;29.12;7.03;;;;;;;;;;4334355;33;20068;-77
2021/03/02 02:08:44;;;;;;;22.05;6.55;;;;;;;;;;4334860;33;20056;-79
2021/03/02 02:11:34;;;;;;;28.42;6.53;;;;;;;;;;4332221;33;20044;-78
2021/03/02 02:14:12;;;;;;;22.15;6.43;;;;;;;;;;4337284;33;20196;-78
2021/03/02 02:16:42;;;;;;;24.63;7.45;;;;;;;;;;4335918;33;20056;-79
2021/03/02 02:19:20;;;;;;;27.40;7.10;;;;;;;;;;4334849;33;20115;-78
2021/03/02 02:22:01;;;;;;;22.67;6.28;;;;;;;;;;4329832;33;20493;-79
2021/03/02 02:24:35;;;;;;;22.45;6.82;;;;;;;;;;4329213;33;20075;-80
2021/03/02 02:27:03;;;;;;;20.90;6.60;;;;;;;;;;4322975;33;20089;-78
2021/03/02 02:29:34;;;;;;;25.80;6.37;;;;;;;;;;4324688;33;20126;-78
2021/03/02 02:32:04;;;;;;;28.27;6.95;;;;;;;;;;4332884;33;20098;-78
2021/03/02 02:34:33;;;;;;;24.90;6.78;;;;;;;;;;4335277;33;20119;-78
2021/03/02 02:37:02;;;;;;;26.40;6.37;;;;;;;;;;4324566;33;20534;-78
2021/03/02 02:39:31;;;;;;;26.27;6.87;;;;;;;;;;4335508;33;20510;-78
2021/03/02 02:42:00;;;;;;;24.05;7.03;;;;;;;;;;4329644;33;20591;-78
2021/03/02 02:44:29;;;;;;;25.30;7.45;;;;;;;;;;4334954;33;20049;-78
2021/03/02 02:46:58;;;;;;;25.85;6.50;;;;;;;;;;4333219;33;22025;-79
2021/03/02 02:49:27;;;;;;;22.67;7.07;;;;;;;;;;4338886;32;20169;-78
2021/03/02 02:51:55;;;;;;;24.60;6.75;;;;;;;;;;4335002;33;20070;-77
2021/03/02 02:54:24;;;;;;;22.92;6.37;;;;;;;;;;4329423;33;20083;-78
2021/03/02 02:56:53;;;;;;;28.38;6.45;;;;;;;;;;4327999;33;20110;-79
2021/03/02 02:59:31;;;;;;;23.10;6.55;;;;;;;;;;4336698;33;20470;-78
2021/03/02 03:02:01;;;;;;;22.33;6.60;;;;;;;;;;4329035;33;20108;-78
2021/03/02 03:04:33;;;;;;;26.75;6.80;;;;;;;;;;4316535;33;20522;-78
2021/03/02 03:07:03;;;;;;;26.20;6.82;;;;;;;;;;4326350;33;20142;-79
2021/03/02 03:09:32;;;;;;;24.92;6.85;;;;;;;;;;4331811;33;20116;-78
2021/03/02 03:12:01;;;;;;;26.83;7.25;;;;;;;;;;4355560;27;20048;-93
2021/03/02 03:14:50;;;;;;;21.98;6.93;;;;;;;;;;4342311;33;20123;-94
2021/03/02 03:17:19;;;;;;;30.75;6.50;;;;;;;;;;4324549;33;20059;-95
2021/03/02 03:19:52;;;;;;;24.85;7.62;;;;;;;;;;4319865;33;20676;-95
2021/03/02 03:22:28;;;;;;;27.90;6.72;;;;;;;;;;4325507;33;20452;-94
2021/03/02 03:25:18;;;;;;;24.10;6.95;;;;;;;;;;4316604;33;20068;-95
2021/03/02 03:27:49;;;;;;;27.50;7.43;;;;;;;;;;4319304;33;20556;-96
2021/03/02 03:30:21;;;;;;;24.63;7.03;;;;;;;;;;4329595;33;20484;-95
2021/03/02 03:32:55;;;;;;;27.05;7.10;;;;;;;;;;4319018;33;20104;-94
2021/03/02 03:35:25;;;;;;;28.00;7.05;;;;;;;;;;4328422;33;20081;-95
2021/03/02 03:37:56;;;;;;;26.10;7.28;;;;;;;;;;4321826;33;20512;-95
2021/03/02 03:40:24;;;;;;;24.87;6.82;;;;;;;;;;4319662;33;20051;-95
2021/03/02 03:42:52;;;;;;;29.02;7.68;;;;;;;;;;4329708;33;20113;-94
2021/03/02 03:45:21;;;;;;;26.58;8.02;;;;;;;;;;4318218;33;20078;-95
2021/03/02 03:47:49;;;;;;;28.50;8.35;;;;;;;;;;4331149;33;20059;-96
2021/03/02 03:50:19;;;;;;;33.70;9.07;;;;;;;;;;4319502;33;20079;-94
2021/03/02 03:52:55;;;;;;;27.23;8.13;;;;;;;;;;4336102;33;20158;-95
2021/03/02 03:55:28;;;;;;;27.52;8.60;;;;;;;;;;4339829;33;20519;-94
2021/03/02 03:57:56;;;;;;;28.85;8.82;;;;;;;;;;4317419;33;20066;-95
2021/03/02 04:00:25;;;;;;;31.85;8.90;;;;;;;;;;4328491;33;20064;-96
2021/03/02 04:02:54;;;;;;;27.90;8.00;;;;;;;;;;4317214;33;20147;-95
2021/03/02 04:05:27;;;;;;;27.27;8.23;;;;;;;;;;4328245;33;20070;-94
2021/03/02 04:08:01;;;;;;;24.08;6.82;;;;;;;;;;4330312;33;20160;-94
2021/03/02 04:10:34;;;;;;;30.70;8.20;;;;;;;;;;4319656;33;20057;-95
2021/03/02 04:13:09;;;;;;;25.15;7.80;;;;;;;;;;4328298;33;20063;-94
2021/03/02 04:15:39;;;;;;;25.40;8.50;;;;;;;;;;4329883;33;20051;-94
2021/03/02 04:18:17;;;;;;;33.22;8.38;;;;;;;;;;4323521;33;20068;-94
2021/03/02 04:20:48;;;;;;;26.17;7.80;;;;;;;;;;4321627;33;20096;-93
2021/03/02 04:23:17;;;;;;;22.15;7.45;;;;;;;;;;4327610;33;20100;-95
2021/03/02 04:25:46;;;;;;;26.75;7.22;;;;;;;;;;4337731;32;20074;-94
2021/03/02 04:28:14;;;;;;;27.60;8.02;;;;;;;;;;4331562;33;20056;-94
2021/03/02 04:30:42;;;;;;;24.92;7.55;;;;;;;;;;4317963;33;20091;-95
2021/03/02 04:33:11;;;;;;;30.80;8.07;;;;;;;;;;4326469;33;20118;-94
2021/03/02 04:35:42;;;;;;;30.60;8.43;;;;;;;;;;4326495;33;20106;-94
2021/03/02 04:38:16;;;;;;;26.67;7.37;;;;;;;;;;4318644;33;20064;-95
2021/03/02 04:40:44;;;;;;;25.02;7.60;;;;;;;;;;4321347;33;20106;-94
2021/03/02 04:43:14;;;;;;;25.55;7.75;;;;;;;;;;4329986;33;20155;-95
2021/03/02 04:45:54;;;;;;;24.33;7.57;;;;;;;;;;4318080;33;20044;-96
2021/03/02 04:48:23;;;;;;;27.15;7.95;;;;;;;;;;4318871;33;20064;-94
2021/03/02 04:50:51;;;;;;;35.58;7.72;;;;;;;;;;4313808;33;20075;-94
2021/03/02 04:53:20;;;;;;;25.30;8.05;;;;;;;;;;4319864;33;20073;-95
2021/03/02 04:55:50;;;;;;;28.62;8.25;;;;;;;;;;4318093;33;20163;-93
2021/03/02 04:58:21;;;;;;;27.52;7.55;;;;;;;;;;4331184;33;20102;-95
2021/03/02 05:00:49;;;;;;;22.58;7.60;;;;;;;;;;4329507;33;20087;-94
2021/03/02 05:03:26;;;;;;;25.52;7.28;;;;;;;;;;4326965;33;20068;-95
2021/03/02 05:05:54;;;;;;;31.17;8.30;;;;;;;;;;4318250;33;20075;-95
2021/03/02 05:08:25;;;;;;;28.42;8.10;;;;;;;;;;4316082;33;20492;-95
2021/03/02 05:10:53;;;;;;;33.10;7.87;;;;;;;;;;4315610;33;20146;-93
2021/03/02 05:13:23;;;;;;;33.00;8.15;;;;;;;;;;4317145;33;20118;-93
2021/03/02 05:16:12;;;;;;;45.12;36.00;;;;;;;;;;4318846;33;20040;-94
2021/03/02 05:18:41;;;;;;;32.65;13.73;;;;;;;;;;4314610;33;20071;-94
2021/03/02 05:21:11;;;;;;;49.33;35.85;;;;;;;;;;4323340;33;20116;-94
2021/03/02 05:23:40;;;;;;;52.58;32.15;;;;;;;;;;4312902;33;20074;-95
2021/03/02 05:26:09;;;;;;;46.08;32.92;;;;;;;;;;4321186;33;20066;-95
2021/03/02 05:28:37;;;;;;;48.35;28.90;;;;;;;;;;4313763;33;20105;-94
2021/03/02 05:31:05;;;;;;;43.50;28.83;;;;;;;;;;4336113;33;20444;-94
2021/03/02 05:33:36;;;;;;;46.53;30.50;;;;;;;;;;4327779;33;20801;-93
2021/03/02 05:36:08;;;;;;;49.60;30.75;;;;;;;;;;4323572;33;20119;-96
2021/03/02 05:38:37;;;;;;;46.15;31.48;;;;;;;;;;4318892;33;20702;-95
2021/03/02 05:41:11;;;;;;;43.97;31.57;;;;;;;;;;4315075;33;20048;-94
2021/03/02 05:43:43;;;;;;;39.10;30.52;;;;;;;;;;4325316;33;20167;-95
2021/03/02 05:46:33;;;;;;;40.70;29.60;;;;;;;;;;4332167;33;20091;-94
2021/03/02 05:49:05;;;;;;;47.65;29.70;;;;;;;;;;4316763;33;20128;-95
2021/03/02 05:51:33;;;;;;;47.08;33.15;;;;;;;;;;4312858;33;20066;-94
2021/03/02 05:54:04;;;;;;;43.40;30.70;;;;;;;;;;4334637;33;20062;-95
2021/03/02 05:56:40;;;;;;;36.85;26.30;;;;;;;;;;4331200;33;20214;-94
2021/03/02 05:59:10;;;;;;;40.70;28.35;;;;;;;;;;4331592;33;20056;-94
2021/03/02 06:01:38;;;;;;;39.88;26.30;;;;;;;;;;4333508;33;20087;-95
2021/03/02 06:04:21;;;;;;;41.33;26.15;;;;;;;;;;4320320;33;20084;-94
2021/03/02 06:06:49;;;;;;;39.72;28.48;;;;;;;;;;4324035;33;20102;-93
2021/03/02 06:09:19;;;;;;;49.75;31.75;;;;;;;;;;4323535;33;20056;-95
2021/03/02 06:11:48;;;;;;;47.22;30.77;;;;;;;;;;4331981;33;20052;-95
2021/03/02 06:14:24;;;;;;;49.72;33.00;;;;;;;;;;4318612;33;20048;-94
2021/03/02 06:16:58;;;;;;;47.25;32.50;;;;;;;;;;4339403;33;20853;-94
2021/03/02 06:19:41;;;;;;;50.97;27.27;;;;;;;;;;4329594;33;20634;-95
2021/03/02 06:22:30;;;;;;;45.05;25.55;;;;;;;;;;4319607;33;20098;-95
2021/03/02 06:24:59;;;;;;;37.08;22.50;;;;;;;;;;4330908;33;20114;-96
2021/03/02 06:27:32;;;;;;;42.92;22.20;;;;;;;;;;4326922;33;21630;-94
2021/03/02 06:30:26;;;;;;;35.33;21.83;;;;;;;;;;4329945;33;20048;-94
2021/03/02 06:33:00;;;;;;;31.52;25.40;;;;;;;;;;4320792;33;20107;-93
2021/03/02 06:35:29;;;;;;;40.33;30.27;;;;;;;;;;4318574;33;21432;-96
2021/03/02 06:37:58;;;;;;;38.75;26.75;;;;;;;;;;4328197;33;20479;-96
2021/03/02 06:40:39;;;;;;;24.98;7.30;;;;;;;;;;4316327;33;20454;-95
2021/03/02 06:43:30;;;;;;;35.17;20.92;;;;;;;;;;4323437;33;20500;-94
2021/03/02 06:46:20;;;;;;;34.83;25.02;;;;;;;;;;4332093;33;20440;-95
2021/03/02 06:48:53;;;;;;;39.40;25.90;;;;;;;;;;4331867;33;20113;-96
2021/03/02 06:51:35;;;;;;;38.65;25.33;;;;;;;;;;4330329;33;20048;-95
2021/03/02 06:54:10;;;;;;;34.78;27.02;;;;;;;;;;4316345;33;20068;-95
2021/03/02 06:56:43;;;;;;;47.65;29.50;;;;;;;;;;4330510;33;20078;-95
2021/03/02 06:59:19;;;;;;;44.80;30.65;;;;;;;;;;4330748;33;20099;-95
2021/03/02 07:01:49;;;;;;;45.78;31.12;;;;;;;;;;4320272;33;20113;-96
2021/03/02 07:04:19;;;;;;;47.28;34.97;;;;;;;;;;4330802;33;20088;-93
2021/03/02 07:07:17;;;;;;;52.22;37.58;;;;;;;;;;4319447;33;20942;-95
2021/03/02 07:09:50;;;;;;;47.75;34.80;;;;;;;;;;4317234;33;20087;-95
2021/03/02 07:12:18;;;;;;;52.67;31.23;;;;;;;;;;4342066;33;20106;-94
2021/03/02 07:14:48;;;;;;;36.53;27.67;;;;;;;;;;4320079;33;20060;-93
2021/03/02 07:17:40;;;;;;;38.92;28.85;;;;;;;;;;4319210;33;20060;-95
2021/03/02 07:20:18;;;;;;;44.95;31.62;;;;;;;;;;4320870;33;20040;-95
2021/03/02 07:22:50;;;;;;;36.92;32.63;;;;;;;;;;4329488;33;20074;-94
2021/03/02 07:25:20;;;;;;;48.00;34.92;;;;;;;;;;4324375;33;20118;-95
2021/03/02 07:27:50;;;;;;;43.53;35.40;;;;;;;;;;4314048;33;20122;-94
2021/03/02 07:30:18;;;;;;;46.25;34.63;;;;;;;;;;4331528;33;20058;-96
2021/03/02 07:32:49;;;;;;;22.65;7.62;;;;;;;;;;4329837;33;20080;-94
2021/03/02 07:35:24;;;;;;;22.90;8.10;;;;;;;;;;4319120;33;20056;-94
2021/03/02 07:38:11;;;;;;;26.42;8.25;;;;;;;;;;4316651;33;20158;-96
2021/03/02 07:40:49;;;;;;;22.77;8.10;;;;;;;;;;4332035;33;20051;-95
2021/03/02 07:43:42;;;;;;;26.48;8.38;;;;;;;;;;4318324;33;20074;-95
2021/03/02 07:46:39;;;;;;;21.48;7.25;;;;;;;;;;4315963;33;20060;-94
2021/03/02 07:49:23;;;;;;;48.80;43.67;;;;;;;;;;4328580;33;20106;-95
2021/03/02 07:51:57;;;;;;;45.45;40.38;;;;;;;;;;4319484;33;20066;-96
2021/03/02 07:54:25;;;;;;;47.90;33.92;;;;;;;;;;4340405;33;20060;-96
2021/03/02 07:57:14;;;;;;;28.33;8.30;;;;;;;;;;4320921;33;20090;-95
2021/03/02 07:59:44;;;;;;;32.70;12.75;;;;;;;;;;4325494;33;20114;-93
2021/03/02 08:02:17;;;;;;;28.65;9.52;;;;;;;;;;4316675;33;20098;-96
2021/03/02 08:04:52;;;;;;;24.85;7.10;;;;;;;;;;4316078;33;20060;-95
2021/03/02 08:07:28;;;;;;;40.40;33.42;;;;;;;;;;4325927;33;20453;-96
2021/03/02 08:10:01;;;;;;;23.33;7.55;;;;;;;;;;4337569;33;20072;-95
2021/03/02 08:12:39;;;;;;;21.27;5.68;;;;;;;;;;4328304;33;20158;-95
2021/03/02 08:15:15;;;;;;;23.55;10.82;;;;;;;;;;4326688;33;20091;-96
2021/03/02 08:18:12;;;;;;;21.98;5.85;;;;;;;;;;4313844;33;20384;-96
2021/03/02 08:20:59;;;;;;;24.10;8.38;;;;;;;;;;4325765;33;20380;-94
2021/03/02 08:23:53;;;;;;;19.90;6.50;;;;;;;;;;4314608;33;20096;-96
2021/03/02 08:26:24;;;;;;;21.27;5.85;;;;;;;;;;4328076;33;20107;-96
2021/03/02 08:29:12;;;;;;;29.92;17.12;;;;;;;;;;4318334;33;20105;-95
2021/03/02 08:31:42;;;;;;;22.37;5.43;;;;;;;;;;4320527;33;20090;-95
2021/03/02 08:34:14;;;;;;;34.40;23.20;;;;;;;;;;4315789;33;20538;-95
2021/03/02 08:36:49;;;;;;;19.45;12.00;;;;;;;;;;4315056;33;20064;-96
2021/03/02 08:39:19;;;;;;;18.95;5.28;;;;;;;;;;4338919;33;20056;-95
2021/03/02 08:41:49;;;;;;;19.23;7.18;;;;;;;;;;4314089;33;20071;-94
2021/03/02 08:44:17;;;;;;;18.33;4.80;;;;;;;;;;4324764;33;20122;-93
2021/03/02 08:46:48;;;;;;;19.80;7.12;;;;;;;;;;4301300;33;20084;-94
2021/03/02 08:49:21;;;;;;;19.48;4.65;;;;;;;;;;4317283;33;20074;-92
2021/03/02 08:52:00;;;;;;;22.08;4.95;;;;;;;;;;4326180;33;20139;-95
2021/03/02 08:54:28;;;;;;;22.50;8.88;;;;;;;;;;4323468;33;20493;-95
2021/03/02 08:57:04;;;;;;;25.42;5.90;;;;;;;;;;4314817;33;20830;-95
2021/03/02 08:59:33;;;;;;;21.48;8.00;;;;;;;;;;4313370;33;20165;-96
2021/03/02 09:02:05;;;;;;;25.73;16.15;;;;;;;;;;4313692;33;20149;-95
2021/03/02 09:04:34;;;;;;;19.52;5.25;;;;;;;;;;4317831;33;20119;-95
2021/03/02 09:07:02;;;;;;;26.90;15.30;;;;;;;;;;4317842;33;20656;-96
2021/03/02 09:09:33;;;;;;;20.02;6.05;;;;;;;;;;4332458;33;20472;-95
2021/03/02 09:12:10;;;;;;;23.40;6.12;;;;;;;;;;4332160;33;20087;-95
2021/03/02 09:14:45;;;;;;;21.98;9.48;;;;;;;;;;4320628;33;20043;-96
2021/03/02 09:17:15;;;;;;;33.80;26.98;;;;;;;;;;4322114;33;20066;-94
2021/03/02 09:19:44;;;;;;;26.08;11.43;;;;;;;;;;4334049;33;20354;-95
2021/03/02 09:22:13;;;;;;;26.95;17.67;;;;;;;;;;4321875;33;20048;-95
2021/03/02 09:24:44;;;;;;;26.08;19.55;;;;;;;;;;4333688;33;20090;-96
2021/03/02 09:27:15;;;;;;;20.73;6.12;;;;;;;;;;4321950;33;20051;-95
2021/03/02 09:29:51;;;;;;;20.85;8.60;;;;;;;;;;4322240;33;20055;-95
2021/03/02 09:32:23;;;;;;;24.08;9.43;;;;;;;;;;4321642;33;20434;-96
2021/03/02 09:34:56;;;;;;;21.95;8.73;;;;;;;;;;4338713;33;20106;-96
2021/03/02 09:37:27;;;;;;;22.17;14.70;;;;;;;;;;4328174;33;20040;-96
2021/03/02 09:40:04;;;;;;;21.48;11.18;;;;;;;;;;4328618;33;20094;-96
2021/03/02 09:42:39;;;;;;;23.08;17.60;;;;;;;;;;4343527;33;20056;-96
2021/03/02 09:45:53;;;;;;;19.40;10.02;;;;;;;;;;4354621;33;20063;-96
2021/03/02 09:48:24;;;;;;;1999.90;999.90;;;;;;;;;;4326050;33;20356;-95
2021/03/02 09:50:52;;;;;;;1999.90;999.90;;;;;;;;;;4326039;33;20047;-96
2021/03/02 09:53:21;;;;;;;1999.90;999.90;;;;;;;;;;4326132;33;20078;-96
2021/03/02 09:55:57;;;;;;;13.63;3.50;;;;;;;;;;4327031;33;20456;-96
2021/03/02 09:58:27;;;;;;;;;;;;;;;;;;4338598;33;20102;-94
2021/03/02 10:01:01;;;;;;;14.00;3.08;;;;;;;;;;4325986;33;19985;-95
2021/03/02 10:03:39;;;;;;;10.90;2.47;;;;;;;;;;4326703;33;20044;-95
2021/03/02 10:06:09;;;;;;;30.75;5.57;;;;;;;;;;4341101;33;20047;-96
2021/03/02 10:08:50;;;;;;;16.77;5.62;;;;;;;;;;4329425;33;20090;-96
2021/03/02 10:11:24;;;;;;;19.83;4.40;;;;;;;;;;4320625;33;20463;-95
2021/03/02 10:13:54;;;;;;;24.87;8.50;;;;;;;;;;4336901;33;20525;-95
2021/03/02 10:16:29;;;;;;;25.08;6.37;;;;;;;;;;4320603;33;20082;-93
2021/03/02 10:19:02;;;;;;;24.42;5.37;;;;;;;;;;4332697;33;20425;-96
2021/03/02 10:21:36;;;;;;;20.02;6.45;;;;;;;;;;4322509;33;20063;-94
2021/03/02 10:24:06;;;;;;;20.62;5.57;;;;;;;;;;4321035;33;20075;-94
2021/03/02 10:26:37;;;;;;;18.58;7.72;;;;;;;;;;4333260;33;20511;-96
2021/03/02 10:29:07;;;;;;;21.67;6.80;;;;;;;;;;4332124;33;20099;-94
2021/03/02 10:31:38;;;;;;;22.52;5.30;;;;;;;;;;4339354;33;20040;-93
2021/03/02 10:34:10;;;;;;;18.08;6.30;;;;;;;;;;4323493;33;20052;-96
2021/03/02 10:36:42;;;;;;;20.92;4.78;;;;;;;;;;4328444;33;20047;-94
2021/03/02 10:39:15;;;;;;;17.42;4.82;;;;;;;;;;4321231;33;20052;-95
2021/03/02 10:41:43;;;;;;;16.62;4.97;;;;;;;;;;4333677;33;20056;-95
2021/03/02 10:44:12;;;;;;;16.20;4.95;;;;;;;;;;4320854;33;20074;-94
2021/03/02 10:46:41;;;;;;;23.55;5.53;;;;;;;;;;4330510;33;20052;-95
2021/03/02 10:49:10;;;;;;;22.33;5.22;;;;;;;;;;4325179;33;20047;-95
2021/03/02 10:51:39;;;;;;;20.65;5.00;;;;;;;;;;4323108;33;20052;-94
2021/03/02 10:54:08;;;;;;;19.00;4.93;;;;;;;;;;4316824;33;20134;-95
2021/03/02 10:56:39;;;;;;;20.52;5.07;;;;;;;;;;4313941;33;20057;-95
2021/03/02 10:59:07;;;;;;;20.65;5.10;;;;;;;;;;4330582;33;20060;-96
2021/03/02 11:01:36;;;;;;;19.52;5.50;;;;;;;;;;4316519;33;21120;-94
2021/03/02 11:04:10;;;;;;;22.30;4.65;;;;;;;;;;4324016;33;20076;-96
2021/03/02 11:06:45;;;;;;;18.33;5.43;;;;;;;;;;4319406;33;20060;-95
2021/03/02 11:09:19;;;;;;;15.73;7.97;;;;;;;;;;4316369;33;20100;-94
2021/03/02 11:11:55;;;;;;;23.85;7.18;;;;;;;;;;4317631;33;20714;-95
2021/03/02 11:14:29;;;;;;;19.52;6.10;;;;;;;;;;4311414;33;20716;-95
2021/03/02 11:16:57;;;;;;;19.67;8.75;;;;;;;;;;4322052;33;20110;-95
2021/03/02 11:19:33;;;;;;;20.05;7.75;;;;;;;;;;4319021;33;20110;-96
2021/03/02 11:22:04;;;;;;;20.00;7.30;;;;;;;;;;4318995;33;20449;-95
2021/03/02 11:24:32;;;;;;;21.95;8.52;;;;;;;;;;4338045;32;20116;-95
2021/03/02 11:27:01;;;;;;;23.25;9.57;;;;;;;;;;4321371;33;20455;-94
2021/03/02 11:29:30;;;;;;;18.60;5.75;;;;;;;;;;4322187;33;20059;-95
2021/03/02 11:31:58;;;;;;;21.50;5.82;;;;;;;;;;4328036;33;20056;-94
2021/03/02 11:34:28;;;;;;;16.30;4.85;;;;;;;;;;4320408;33;20083;-93
2021/03/02 11:36:59;;;;;;;23.38;4.65;;;;;;;;;;4321141;33;20048;-95
2021/03/02 11:39:31;;;;;;;17.50;5.82;;;;;;;;;;4340889;33;20071;-95
2021/03/02 11:42:01;;;;;;;22.85;5.28;;;;;;;;;;4332927;33;20203;-96
2021/03/02 11:44:31;;;;;;;20.40;5.37;;;;;;;;;;4321214;33;20057;-94
2021/03/02 11:47:02;;;;;;;19.55;8.30;;;;;;;;;;4329668;33;20047;-95
2021/03/02 11:49:33;;;;;;;21.00;7.62;;;;;;;;;;4342268;33;20052;-94
2021/03/02 11:52:02;;;;;;;14.68;4.85;;;;;;;;;;4325866;33;20048;-95
2021/03/02 11:54:34;;;;;;;21.85;9.00;;;;;;;;;;4317016;33;20048;-95
2021/03/02 11:57:03;;;;;;;16.92;5.12;;;;;;;;;;4320813;33;20071;-95
2021/03/02 11:59:34;;;;;;;18.42;5.10;;;;;;;;;;4319902;33;20099;-95
2021/03/02 12:02:02;;;;;;;20.52;4.75;;;;;;;;;;4311665;33;20044;-93
2021/03/02 12:04:32;;;;;;;24.08;5.40;;;;;;;;;;4337577;33;20134;-94
2021/03/02 12:07:02;;;;;;;17.98;4.75;;;;;;;;;;4329888;33;20099;-96
2021/03/02 12:09:32;;;;;;;19.23;6.07;;;;;;;;;;4316454;33;20114;-93
2021/03/02 12:12:00;;;;;;;17.70;7.40;;;;;;;;;;4313175;33;20095;-94
2021/03/02 12:14:29;;;;;;;17.80;5.45;;;;;;;;;;4316707;33;20048;-96
2021/03/02 12:17:00;;;;;;;17.50;5.80;;;;;;;;;;4317950;33;20055;-94
2021/03/02 12:19:38;;;;;;;13.93;5.40;;;;;;;;;;4346099;33;20092;-95
2021/03/02 12:22:14;;;;;;;17.48;5.18;;;;;;;;;;4330638;33;20651;-95
2021/03/02 12:24:45;;;;;;;19.52;5.35;;;;;;;;;;4322085;33;20044;-95
2021/03/02 12:27:18;;;;;;;19.33;7.45;;;;;;;;;;4321247;33;20424;-96
2021/03/02 12:29:46;;;;;;;15.48;5.25;;;;;;;;;;4323414;33;20526;-96
2021/03/02 12:32:14;;;;;;;17.62;4.35;;;;;;;;;;4330899;33;20059;-95
2021/03/02 12:34:43;;;;;;;17.85;4.85;;;;;;;;;;4333738;33;20106;-95
2021/03/02 12:37:16;;;;;;;18.23;5.20;;;;;;;;;;4332548;33;20072;-95
2021/03/02 12:39:46;;;;;;;17.77;4.40;;;;;;;;;;4322576;33;20388;-96
2021/03/02 12:42:22;;;;;;;14.63;4.37;;;;;;;;;;4322891;33;20069;-96
2021/03/02 12:45:07;;;;;;;20.58;5.45;;;;;;;;;;4326972;33;20078;-96
2021/03/02 12:48:00;;;;;;;13.95;3.87;;;;;;;;;;4325835;33;20052;-94
2021/03/02 12:50:35;;;;;;;20.73;5.35;;;;;;;;;;4314704;33;20087;-95
2021/03/02 12:53:08;;;;;;;19.80;4.87;;;;;;;;;;4336438;33;20068;-95
2021/03/02 12:55:37;;;;;;;18.33;4.62;;;;;;;;;;4330984;33;20089;-95
2021/03/02 12:58:05;;;;;;;17.80;4.47;;;;;;;;;;4328920;33;20322;-95
2021/03/02 13:00:37;;;;;;;19.90;4.57;;;;;;;;;;4328273;33;20068;-96
2021/03/02 13:03:06;;;;;;;22.77;4.22;;;;;;;;;;4319307;33;20048;-96
2021/03/02 13:05:41;;;;;;;14.55;4.37;;;;;;;;;;4340578;33;20109;-96
2021/03/02 13:08:11;;;;;;;18.50;4.78;;;;;;;;;;4334052;33;20060;-95
2021/03/02 13:10:46;;;;;;;21.70;4.85;;;;;;;;;;4318898;33;20060;-95
2021/03/02 13:13:17;;;;;;;17.40;5.22;;;;;;;;;;4326694;33;20158;-95
2021/03/02 13:15:45;;;;;;;16.58;4.28;;;;;;;;;;4305667;33;20103;-95
2021/03/02 13:18:16;;;;;;;15.88;4.22;;;;;;;;;;4330928;33;20371;-96
2021/03/02 13:20:45;;;;;;;16.70;4.03;;;;;;;;;;4313509;33;20052;-96
2021/03/02 13:23:15;;;;;;;16.25;4.25;;;;;;;;;;4321466;33;20075;-94
2021/03/02 13:25:45;;;;;;;20.12;4.62;;;;;;;;;;4310488;33;20078;-93
2021/03/02 13:28:14;;;;;;;15.40;4.07;;;;;;;;;;4314370;33;20045;-92
2021/03/02 13:30:44;;;;;;;15.65;4.12;;;;;;;;;;4317884;33;20130;-94
2021/03/02 13:33:15;;;;;;;15.85;4.12;;;;;;;;;;4315779;33;20113;-94
2021/03/02 13:35:47;;;;;;;17.17;4.15;;;;;;;;;;4316885;33;20059;-94
2021/03/02 13:38:17;;;;;;;18.80;4.28;;;;;;;;;;4331057;33;20152;-94
2021/03/02 13:40:49;;;;;;;19.37;4.65;;;;;;;;;;4318274;33;20047;-95
2021/03/02 13:43:19;;;;;;;17.70;4.55;;;;;;;;;;4316149;33;20052;-96
2021/03/02 13:45:53;;;;;;;17.80;3.58;;;;;;;;;;4327476;33;20102;-94
2021/03/02 13:48:22;;;;;;;14.38;3.72;;;;;;;;;;4318143;33;20115;-96
2021/03/02 13:50:52;;;;;;;17.87;4.40;;;;;;;;;;4317108;33;20052;-93
2021/03/02 13:53:21;;;;;;;12.05;3.67;;;;;;;;;;4330203;33;20161;-95
2021/03/02 13:55:50;;;;;;;20.05;4.32;;;;;;;;;;4327510;33;20140;-93
2021/03/02 13:58:18;;;;;;;17.20;3.87;;;;;;;;;;4321494;33;20088;-95
2021/03/02 14:00:48;;;;;;;15.60;4.03;;;;;;;;;;4312132;33;20060;-93
2021/03/02 14:03:19;;;;;;;18.70;4.60;;;;;;;;;;4322123;33;20078;-93
2021/03/02 14:05:48;;;;;;;17.12;3.85;;;;;;;;;;4327716;33;20368;-91
2021/03/02 14:08:18;;;;;;;18.25;4.20;;;;;;;;;;4316161;33;20757;-93
2021/03/02 14:10:47;;;;;;;14.15;3.72;;;;;;;;;;4315009;33;20134;-95
2021/03/02 14:13:16;;;;;;;14.87;4.00;;;;;;;;;;4338055;33;20056;-94
2021/03/02 14:15:44;;;;;;;16.83;4.00;;;;;;;;;;4340030;33;20078;-93
2021/03/02 14:18:15;;;;;;;14.18;3.42;;;;;;;;;;4329188;33;20126;-94
2021/03/02 14:20:43;;;;;;;13.20;3.40;;;;;;;;;;4329129;33;20064;-92
2021/03/02 14:23:11;;;;;;;16.75;3.80;;;;;;;;;;4337431;33;20056;-94
2021/03/02 14:25:40;;;;;;;12.80;3.47;;;;;;;;;;4336453;33;20052;-93
2021/03/02 14:28:09;;;;;;;20.45;4.25;;;;;;;;;;4317541;33;20100;-93
2021/03/02 14:30:37;;;;;;;14.60;3.70;;;;;;;;;;4316000;33;20104;-93
2021/03/02 14:33:06;;;;;;;17.10;3.72;;;;;;;;;;4320985;33;20091;-93
2021/03/02 14:35:34;;;;;;;20.62;4.15;;;;;;;;;;4330120;33;20546;-92
2021/03/02 14:38:03;;;;;;;17.15;4.00;;;;;;;;;;4333301;33;20056;-93
2021/03/02 14:40:31;;;;;;;19.12;4.45;;;;;;;;;;4322385;33;20110;-92
2021/03/02 14:43:02;;;;;;;12.82;3.40;;;;;;;;;;4318687;33;20056;-92
2021/03/02 14:45:35;;;;;;;14.20;3.80;;;;;;;;;;4327422;33;20052;-94
2021/03/02 14:48:24;;;;;;;20.25;4.40;;;;;;;;;;4324608;33;20092;-95
2021/03/02 14:50:53;;;;;;;15.88;4.05;;;;;;;;;;4314580;33;20104;-96
2021/03/02 14:53:23;;;;;;;14.15;3.95;;;;;;;;;;4323283;33;20078;-96
2021/03/02 14:55:52;;;;;;;13.75;3.87;;;;;;;;;;4319621;33;20073;-95